Ventura, CA (93003)

2:46 PM PDT on March 31, 2015 (GMT -0700)
US 101 @ SR 126 | | Change Station
CLOSE
Current Station
Personal Weather Station
Location: Ventura, CA
Elevation: 205 ft
Nearby Weather Stations

Elev 205 ft 34.27 °N, 119.22 °W | Updated 233 days ago

Clear
Clear
73 °F
Feels Like 73 °F
N
13
Wind Variable Wind from SW
Gusts mph

Today
High -- | Low -- °F
--% Chance of Precip.
Yesterday
High -- | Low -- °F
Precip. -- in
6:45 AM 7:16 PM
Waxing Gibbous, 89% visible
Pressure 30.00 in
Visibility 9.0 miles
Clouds Clear
Dew Point 51 °F
Humidity 46%
Rainfall in
Snow Depth Not available.
UV 9 out of 12
Pollen 10.60 out of 12
Air Quality Not available.
Flu Activity Not available.
METAR KOXR 312051Z 23010KT 9SM CLR 19/12 A3000 RMK AO2 SLP158 T01890122 58013

More Conditions Fewer Conditions

Pressure 30.00 in
Visibility 9.0 miles
Clouds Clear
Dew Point 51 °F
Humidity 46%
Rainfall in
Snow Depth Not available.
UV 9 out of 12
Pollen 10.60 out of 12
Air Quality Not available.
Flu Activity Not available.
METAR KOXR 312051Z 23010KT 9SM CLR 19/12 A3000 RMK AO2 SLP158 T01890122 58013

More Conditions Fewer Conditions

10-Day Weather Forecast

Almanac

Astronomy

Mar. 31, 2015 Rise Set
Actual Time
Civil Twilight
Nautical Twilight
Astronomical Twilight
Moon
Length of Visible Light
Length of Day
Tomorrow will be .
, % of the Moon is Illuminated

Today's Extremes

State Highs State Lows

Community

WunderPhotos

Upload Photos

1,809,844 photos uploaded!

WunderBlogs® & News

Nearby

Air Quality

  Air Quality AQ Index Pollutant
Not available.

Snow Depth

Station Depth Elevation

Earthquake Activity

City Distance Mag. Time & Date
Minimum magnitude displayed is 2.5.

Coastal Water Temperatures

Place Temperature

Stations

Nearby Weather Stations

Station Location Temp. Windchill Dew Point Humidity Wind Precip. Elev Updated Type
                   
Beach Hazard Statement
Statement as of 2:26 PM PDT on March 31, 2015

... Beach hazards statement remains in effect through late
Wednesday night...

* hazards... dangerous rip currents and breaking waves on coastal
rock jetties are expected through Wednesday night.

* Impacts... there is an increased risk for ocean drowning. Rip
currents can pull swimmers and surfers out to sea. Waves can
suddenly wash people off of beaches and coastal rock jetties.

Precautionary/preparedness actions...

A beach hazards statement is issued when threats to beach and
surf zone safety are expected or occurring. Caution should be
used when in or near the water. Stay near occupied lifeguard
towers and never swim alone. If caught in a rip current... swim
parallel to the shore.